createdAt,value
2023-04-01T00:00:51.035Z,24.47
2023-04-01T00:01:51.028Z,24.47
2023-04-01T00:02:51.137Z,24.48
2023-04-01T00:03:51.646Z,24.46
2023-04-01T00:04:51.014Z,24.47
2023-04-01T00:05:51.001Z,24.48
2023-04-01T00:06:50.997Z,24.48
2023-04-01T00:07:50.979Z,24.47
2023-04-01T00:08:50.978Z,24.47
2023-04-01T00:09:50.974Z,24.50
2023-04-01T00:10:50.972Z,24.50
2023-04-01T00:11:50.976Z,24.51
2023-04-01T00:12:50.996Z,24.52
2023-04-01T00:13:50.973Z,24.52
2023-04-01T00:14:50.963Z,24.54
2023-04-01T00:15:51.006Z,24.54
2023-04-01T00:16:50.970Z,24.54
2023-04-01T00:17:51.035Z,24.54
2023-04-01T00:18:51.091Z,24.55
2023-04-01T00:19:50.938Z,24.58
2023-04-01T00:20:50.930Z,24.57
2023-04-01T00:21:50.927Z,24.58
2023-04-01T00:22:50.913Z,24.58
2023-04-01T00:23:50.906Z,24.58
2023-04-01T00:24:50.907Z,24.58
2023-04-01T00:25:50.921Z,24.60
2023-04-01T00:26:50.909Z,24.61
2023-04-01T00:27:50.908Z,24.62
2023-04-01T00:28:50.937Z,24.61
2023-04-01T00:29:50.906Z,24.62
2023-04-01T00:30:50.902Z,24.62
2023-04-01T00:31:50.930Z,24.62
2023-04-01T00:32:50.939Z,24.62
2023-04-01T00:33:50.896Z,24.64
2023-04-01T00:34:50.897Z,24.64
2023-04-01T00:35:50.941Z,24.64
2023-04-01T00:36:50.873Z,24.64
2023-04-01T00:37:50.875Z,24.64
2023-04-01T00:38:50.873Z,24.65
2023-04-01T00:39:50.864Z,24.68
2023-04-01T00:40:50.872Z,24.67
2023-04-01T00:41:50.869Z,24.65
2023-04-01T00:42:50.894Z,24.68
2023-04-01T00:43:50.885Z,24.64
2023-04-01T00:44:50.920Z,24.67
2023-04-01T00:45:50.937Z,24.68
2023-04-01T00:46:50.938Z,24.67
2023-04-01T00:47:50.965Z,24.69
2023-04-01T00:48:50.935Z,24.67
2023-04-01T00:49:50.946Z,24.68
2023-04-01T00:50:50.938Z,24.68
2023-04-01T00:51:50.950Z,24.69
2023-04-01T00:52:50.967Z,24.68
2023-04-01T00:53:50.988Z,24.68
2023-04-01T00:54:50.996Z,24.68
2023-04-01T00:55:50.988Z,24.69
2023-04-01T00:56:51.055Z,24.68
2023-04-01T00:57:50.997Z,24.69
2023-04-01T00:58:51.047Z,24.68
2023-04-01T00:59:51.016Z,24.69
2023-04-01T01:00:51.069Z,24.69
2023-04-01T01:01:51.050Z,24.69
2023-04-01T01:02:51.089Z,24.69
2023-04-01T01:03:51.056Z,24.68
2023-04-01T01:04:51.054Z,24.68
2023-04-01T01:05:51.185Z,24.68
2023-04-01T01:06:51.055Z,24.71
2023-04-01T01:07:51.056Z,24.69
2023-04-01T01:08:51.076Z,24.69
2023-04-01T01:09:51.081Z,24.69
2023-04-01T01:10:51.087Z,24.68
2023-04-01T01:11:51.084Z,24.71
2023-04-01T01:12:51.091Z,24.68
2023-04-01T01:13:51.107Z,24.69
2023-04-01T01:14:51.108Z,24.69
2023-04-01T01:15:51.116Z,24.71
2023-04-01T01:16:51.164Z,24.67
2023-04-01T01:17:51.197Z,24.72
2023-04-01T01:18:51.138Z,24.69
2023-04-01T01:19:51.147Z,24.68
2023-04-01T01:20:51.150Z,24.71
2023-04-01T01:21:51.170Z,24.68
2023-04-01T01:22:51.176Z,24.71
2023-04-01T01:23:51.204Z,24.71
2023-04-01T01:24:51.183Z,24.69
2023-04-01T01:25:51.192Z,24.68
2023-04-01T01:26:51.189Z,24.68
2023-04-01T01:27:51.188Z,24.71
2023-04-01T01:28:51.215Z,24.69
2023-04-01T01:29:51.214Z,24.68
2023-04-01T01:30:51.322Z,24.71
2023-04-01T01:31:51.221Z,24.71
2023-04-01T01:32:51.338Z,24.69
2023-04-01T01:33:51.240Z,24.69
2023-04-01T01:34:51.271Z,24.68
2023-04-01T01:35:51.240Z,24.69
2023-04-01T01:36:51.248Z,24.71
2023-04-01T01:37:51.260Z,24.71
2023-04-01T01:38:51.269Z,24.69
2023-04-01T01:39:51.285Z,24.67
2023-04-01T01:40:51.276Z,24.69
2023-04-01T01:41:51.282Z,24.68
2023-04-01T01:42:51.293Z,24.68
2023-04-01T01:43:51.301Z,24.68
2023-04-01T01:44:51.323Z,24.71
2023-04-01T01:45:51.388Z,24.69
2023-04-01T01:46:51.336Z,24.69
2023-04-01T01:47:51.367Z,24.68
2023-04-01T01:48:51.380Z,24.68
2023-04-01T01:49:51.362Z,24.71
2023-04-01T01:50:51.382Z,24.69
2023-04-01T01:51:51.381Z,24.69
2023-04-01T01:52:51.401Z,24.68
2023-04-01T01:53:51.401Z,24.69
2023-04-01T01:54:51.421Z,24.69
2023-04-01T01:55:51.416Z,24.69
2023-04-01T01:56:51.444Z,24.69
2023-04-01T01:57:51.419Z,24.69
2023-04-01T01:58:51.424Z,24.65
2023-04-01T01:59:51.427Z,24.71
2023-04-01T02:00:51.434Z,24.69
2023-04-01T02:01:51.514Z,24.69
2023-04-01T02:02:51.447Z,24.72
2023-04-01T02:03:51.464Z,24.67
2023-04-01T02:04:51.547Z,24.65
2023-04-01T02:05:51.465Z,24.68
2023-04-01T02:06:51.472Z,24.67
2023-04-01T02:07:51.470Z,24.67
2023-04-01T02:08:51.486Z,24.67
2023-04-01T02:09:51.497Z,24.69
2023-04-01T02:10:51.505Z,24.68
2023-04-01T02:11:51.514Z,24.67
2023-04-01T02:12:51.524Z,24.68
2023-04-01T02:13:51.520Z,24.68
2023-04-01T02:14:51.529Z,24.67
2023-04-01T02:15:51.548Z,24.69
2023-04-01T02:16:51.534Z,24.69
2023-04-01T02:17:51.569Z,24.69
2023-04-01T02:18:51.547Z,24.67
2023-04-01T02:19:51.566Z,24.71
2023-04-01T02:20:51.597Z,24.68
2023-04-01T02:21:51.583Z,24.69
2023-04-01T02:22:51.577Z,24.67
2023-04-01T02:23:51.586Z,24.67
2023-04-01T02:24:51.592Z,24.68
2023-04-01T02:25:51.597Z,24.68
2023-04-01T02:26:51.606Z,24.69
2023-04-01T02:27:51.606Z,24.68
2023-04-01T02:28:51.616Z,24.67
2023-04-01T02:29:51.612Z,24.68
2023-04-01T02:30:51.622Z,24.67
2023-04-01T02:31:51.739Z,24.69
2023-04-01T02:32:51.700Z,24.69
2023-04-01T02:33:51.644Z,24.67
2023-04-01T02:34:51.649Z,24.68
2023-04-01T02:35:51.668Z,24.68
2023-04-01T02:36:51.690Z,24.67
2023-04-01T02:37:51.668Z,24.65
2023-04-01T02:38:51.678Z,24.69
2023-04-01T02:39:51.689Z,24.68
2023-04-01T02:40:51.693Z,24.68
2023-04-01T02:41:51.714Z,24.69
2023-04-01T02:42:51.713Z,24.69
2023-04-01T02:43:51.718Z,24.68
2023-04-01T02:44:51.738Z,24.68
2023-04-01T02:46:16.350Z,24.67
2023-04-01T02:47:17.288Z,24.71
2023-04-01T02:48:17.295Z,24.68
2023-04-01T02:49:17.289Z,24.69
2023-04-01T02:50:17.277Z,24.69
2023-04-01T02:51:18.451Z,24.68
2023-04-01T02:52:17.302Z,24.69
2023-04-01T02:53:17.283Z,24.69
2023-04-01T02:54:17.275Z,24.69
2023-04-01T02:55:17.285Z,24.71
2023-04-01T02:56:17.286Z,24.69
2023-04-01T02:57:17.380Z,24.68
2023-04-01T02:58:17.277Z,24.68
2023-04-01T02:59:17.314Z,24.68
2023-04-01T03:00:17.284Z,24.69
2023-04-01T03:01:17.318Z,24.68
2023-04-01T03:02:17.305Z,24.68
2023-04-01T03:03:17.357Z,24.68
2023-04-01T03:04:17.258Z,24.69
2023-04-01T03:05:17.254Z,24.69
2023-04-01T03:06:17.268Z,24.71
2023-04-01T03:07:17.299Z,24.68
2023-04-01T03:08:17.332Z,24.69
2023-04-01T03:09:17.296Z,24.68
2023-04-01T03:10:17.311Z,24.68
2023-04-01T03:11:17.317Z,24.69
2023-04-01T03:12:17.326Z,24.67
2023-04-01T03:13:17.326Z,24.69
2023-04-01T03:14:17.333Z,24.69
2023-04-01T03:15:17.358Z,24.68
2023-04-01T03:16:17.383Z,24.69
2023-04-01T03:17:17.364Z,24.69
2023-04-01T03:18:17.376Z,24.69
2023-04-01T03:19:17.394Z,24.69
2023-04-01T03:20:17.441Z,24.69
2023-04-01T03:21:17.439Z,24.71
2023-04-01T03:22:17.394Z,24.71
2023-04-01T03:23:17.391Z,24.69
2023-04-01T03:24:17.420Z,24.72
2023-04-01T03:25:17.403Z,24.69
2023-04-01T03:26:17.409Z,24.69
2023-04-01T03:27:17.403Z,24.71
2023-04-01T03:28:17.411Z,24.69
2023-04-01T03:29:17.415Z,24.69
2023-04-01T03:30:17.505Z,24.69
2023-04-01T03:31:17.498Z,24.69
2023-04-01T03:32:17.438Z,24.71
2023-04-01T03:33:17.437Z,24.69
2023-04-01T03:34:17.454Z,24.71
2023-04-01T03:35:17.461Z,24.71
2023-04-01T03:36:17.510Z,24.71
2023-04-01T03:37:17.484Z,24.71
2023-04-01T03:38:17.493Z,24.72
2023-04-01T03:39:17.507Z,24.72
2023-04-01T03:40:17.584Z,24.69
2023-04-01T03:41:17.538Z,24.72
2023-04-01T03:42:17.532Z,24.74
2023-04-01T03:43:17.630Z,24.72
2023-04-01T03:44:17.548Z,24.72
2023-04-01T03:45:17.556Z,24.72
2023-04-01T03:46:17.594Z,24.74
2023-04-01T03:47:17.571Z,24.72
2023-04-01T03:48:17.579Z,24.72
2023-04-01T03:49:17.574Z,24.74
2023-04-01T03:50:17.580Z,24.74
2023-04-01T03:51:17.596Z,24.74
2023-04-01T03:52:17.591Z,24.74
2023-04-01T03:53:17.619Z,24.74
2023-04-01T03:54:17.608Z,24.72
2023-04-01T03:55:17.611Z,24.71
2023-04-01T03:56:17.677Z,24.74
2023-04-01T03:57:17.700Z,24.74
2023-04-01T03:58:17.654Z,24.75
2023-04-01T03:59:17.653Z,24.75
2023-04-01T04:00:17.670Z,24.68
2023-04-01T04:01:17.669Z,24.74
2023-04-01T04:02:17.694Z,24.74
2023-04-01T04:03:17.839Z,24.72
2023-04-01T04:04:17.718Z,24.72
2023-04-01T04:05:17.691Z,24.71
2023-04-01T04:06:17.760Z,24.74
2023-04-01T04:07:17.705Z,24.71
2023-04-01T04:08:17.709Z,24.72
2023-04-01T04:09:17.715Z,24.74
2023-04-01T04:10:17.719Z,24.72
2023-04-01T04:11:17.744Z,24.74
2023-04-01T04:12:17.757Z,24.74
2023-04-01T04:13:17.733Z,24.72
2023-04-01T04:14:17.752Z,24.74
2023-04-01T04:15:17.749Z,24.74
2023-04-01T04:16:17.808Z,24.75
2023-04-01T04:17:17.763Z,24.74
2023-04-01T04:18:17.769Z,24.72
2023-04-01T04:19:17.771Z,24.71
2023-04-01T04:20:17.781Z,24.72
2023-04-01T04:21:17.783Z,24.74
2023-04-01T04:22:17.792Z,24.72
2023-04-01T04:23:17.806Z,24.74
2023-04-01T04:24:17.798Z,24.75
2023-04-01T04:25:17.813Z,24.75
2023-04-01T04:26:17.809Z,24.74
2023-04-01T04:27:17.813Z,24.75
2023-04-01T04:28:17.852Z,24.74
2023-04-01T04:29:17.833Z,24.71
2023-04-01T04:30:17.844Z,24.72
2023-04-01T04:31:17.910Z,24.74
2023-04-01T04:32:17.852Z,24.74
2023-04-01T04:33:17.860Z,24.74
2023-04-01T04:34:17.875Z,24.74
2023-04-01T04:35:17.896Z,24.72
2023-04-01T04:36:17.919Z,24.74
2023-04-01T04:37:17.898Z,24.75
2023-04-01T04:38:17.915Z,24.72
2023-04-01T04:39:17.900Z,24.71
2023-04-01T04:40:17.908Z,24.72
2023-04-01T04:41:17.923Z,24.71
2023-04-01T04:42:17.929Z,24.72
2023-04-01T04:43:17.935Z,24.74
2023-04-01T04:44:17.971Z,24.74
2023-04-01T04:45:17.947Z,24.72
2023-04-01T04:46:18.006Z,24.71
2023-04-01T04:47:18.168Z,24.72
2023-04-01T04:48:17.976Z,24.74
2023-04-01T04:49:17.975Z,24.72
2023-04-01T04:50:17.979Z,24.71
2023-04-01T04:51:17.983Z,24.74
2023-04-01T04:52:18.001Z,24.71
2023-04-01T04:53:17.984Z,24.72
2023-04-01T04:54:18.001Z,24.72
2023-04-01T04:55:17.999Z,24.67
2023-04-01T04:56:18.008Z,24.71
2023-04-01T04:57:18.079Z,24.71
2023-04-01T04:58:18.027Z,24.69
2023-04-01T04:59:18.048Z,24.69
2023-04-01T05:00:18.074Z,24.69
2023-04-01T05:01:18.084Z,24.71
2023-04-01T05:02:18.097Z,24.71
2023-04-01T05:03:18.230Z,24.72
2023-04-01T05:04:18.084Z,24.69
2023-04-01T05:05:18.089Z,24.72
2023-04-01T05:06:18.093Z,24.74
2023-04-01T05:07:18.105Z,24.71
2023-04-01T05:08:18.128Z,24.72
2023-04-01T05:09:18.157Z,24.71
2023-04-01T05:10:18.131Z,24.72
2023-04-01T05:11:18.147Z,24.71
2023-04-01T05:12:18.146Z,24.71
2023-04-01T05:13:18.159Z,24.71
2023-04-01T05:14:18.182Z,24.71
2023-04-01T05:15:18.213Z,24.69
2023-04-01T05:16:18.266Z,24.68
2023-04-01T05:17:18.224Z,24.69
2023-04-01T05:18:18.247Z,24.67
2023-04-01T05:19:18.266Z,24.69
2023-04-01T05:20:18.288Z,24.67
2023-04-01T05:21:18.292Z,24.67
2023-04-01T05:22:18.317Z,24.67
2023-04-01T05:23:18.337Z,24.65
2023-04-01T05:24:18.366Z,24.67
2023-04-01T05:25:18.377Z,24.67
2023-04-01T05:26:18.403Z,24.68
2023-04-01T05:27:18.428Z,24.67
2023-04-01T05:28:18.454Z,24.65
2023-04-01T05:29:18.473Z,24.64
2023-04-01T05:30:18.497Z,24.68
2023-04-01T05:31:18.569Z,24.67
2023-04-01T05:32:18.578Z,24.64
2023-04-01T05:33:18.589Z,24.65
2023-04-01T05:34:18.609Z,24.67
2023-04-01T05:35:18.641Z,24.65
2023-04-01T05:36:18.711Z,24.67
2023-04-01T05:37:18.705Z,24.62
2023-04-01T05:38:18.728Z,24.65
2023-04-01T05:39:18.753Z,24.65
2023-04-01T05:40:18.792Z,24.65
2023-04-01T05:41:18.825Z,24.67
2023-04-01T05:42:18.864Z,24.65
2023-04-01T05:43:19.006Z,24.67
2023-04-01T05:44:18.930Z,24.65
2023-04-01T05:45:18.973Z,24.65
2023-04-01T05:46:19.071Z,24.65
2023-04-01T05:47:19.023Z,24.62
2023-04-01T05:48:19.246Z,24.68
2023-04-01T05:49:19.101Z,24.64
2023-04-01T05:50:19.136Z,24.65
2023-04-01T05:51:19.173Z,24.64
2023-04-01T05:52:19.236Z,24.65
2023-04-01T05:53:19.243Z,24.64
2023-04-01T05:54:19.284Z,24.67
2023-04-01T05:55:19.300Z,24.65
2023-04-01T05:56:19.344Z,24.68
2023-04-01T05:57:19.427Z,24.65
2023-04-01T05:58:19.392Z,24.65
2023-04-01T05:59:19.428Z,24.64
2023-04-01T06:00:19.455Z,24.67
2023-04-01T06:01:19.483Z,24.65
2023-04-01T06:02:19.524Z,24.64
2023-04-01T06:03:19.576Z,24.65
2023-04-01T06:04:19.649Z,24.67
2023-04-01T06:05:19.612Z,24.64
2023-04-01T06:06:19.633Z,24.64
2023-04-01T06:07:19.655Z,24.65
2023-04-01T06:08:20.710Z,24.67
2023-04-01T06:09:19.704Z,24.65
2023-04-01T06:10:19.727Z,24.65
2023-04-01T06:11:19.767Z,24.64
2023-04-01T06:12:19.774Z,24.65
2023-04-01T06:13:19.802Z,24.64
2023-04-01T06:14:19.831Z,24.64
2023-04-01T06:15:19.852Z,24.64
2023-04-01T06:16:19.930Z,24.62
2023-04-01T06:17:19.903Z,24.64
2023-04-01T06:18:19.934Z,24.64
2023-04-01T06:19:19.940Z,24.65
2023-04-01T06:20:19.999Z,24.61
2023-04-01T06:21:19.985Z,24.61
2023-04-01T06:22:20.031Z,24.61
2023-04-01T06:23:20.027Z,24.65
2023-04-01T06:24:20.052Z,24.64
2023-04-01T06:25:20.074Z,24.65
2023-04-01T06:26:20.084Z,24.62
2023-04-01T06:27:20.102Z,24.62
2023-04-01T06:28:20.137Z,24.61
2023-04-01T06:29:20.149Z,24.64
2023-04-01T06:30:20.180Z,24.65
2023-04-01T06:31:20.213Z,24.61
2023-04-01T06:32:20.275Z,24.62
2023-04-01T06:33:20.217Z,24.61
2023-04-01T06:34:20.239Z,24.62
2023-04-01T06:35:20.262Z,24.64
2023-04-01T06:36:20.358Z,24.62
2023-04-01T06:37:20.320Z,24.67
2023-04-01T06:38:20.321Z,24.65
2023-04-01T06:39:20.339Z,24.62
2023-04-01T06:40:20.365Z,24.65
2023-04-01T06:41:20.383Z,24.65
2023-04-01T06:42:20.402Z,24.62
2023-04-01T06:43:20.421Z,24.62
2023-04-01T06:44:20.440Z,24.65
2023-04-01T06:45:20.631Z,24.64
2023-04-01T06:46:20.467Z,24.65
2023-04-01T06:47:20.480Z,24.65
2023-04-01T06:48:20.490Z,24.67
2023-04-01T06:49:20.504Z,24.65
2023-04-01T06:50:20.533Z,24.64
2023-04-01T06:51:20.531Z,24.67
2023-04-01T06:52:20.575Z,24.64
2023-04-01T06:53:20.565Z,24.68
2023-04-01T06:54:20.577Z,24.67
2023-04-01T06:55:22.737Z,24.65
2023-04-01T06:56:20.595Z,24.69
2023-04-01T06:57:20.647Z,24.69
2023-04-01T06:58:20.580Z,24.67
2023-04-01T06:59:20.771Z,24.69
2023-04-01T07:00:20.577Z,24.67
2023-04-01T07:01:20.726Z,24.69
2023-04-01T07:02:20.560Z,24.68
2023-04-01T07:03:20.567Z,24.69
2023-04-01T07:04:20.542Z,24.68
2023-04-01T07:05:20.534Z,24.69
2023-04-01T07:06:20.531Z,24.71
2023-04-01T07:07:20.525Z,24.69
2023-04-01T07:08:20.622Z,24.74
2023-04-01T07:09:20.495Z,24.72
2023-04-01T07:10:20.489Z,24.74
2023-04-01T07:11:20.480Z,24.72
2023-04-01T07:12:20.470Z,24.74
2023-04-01T07:13:20.476Z,24.74
2023-04-01T07:14:20.464Z,24.75
2023-04-01T07:15:20.471Z,24.78
2023-04-01T07:16:20.509Z,24.79
2023-04-01T07:17:20.436Z,24.82
2023-04-01T07:18:20.429Z,24.79
2023-04-01T07:19:20.415Z,24.78
2023-04-01T07:20:20.416Z,24.82
2023-04-01T07:21:20.393Z,24.82
2023-04-01T07:22:20.377Z,24.82
2023-04-01T07:23:20.368Z,24.83
2023-04-01T07:24:20.565Z,24.82
2023-04-01T07:25:20.367Z,24.86
2023-04-01T07:26:20.338Z,24.85
2023-04-01T07:27:20.333Z,24.85
2023-04-01T07:28:20.350Z,24.85
2023-04-01T07:29:20.313Z,24.86
2023-04-01T07:30:20.300Z,24.88
2023-04-01T07:31:20.347Z,24.88
2023-04-01T07:32:20.274Z,24.88
2023-04-01T07:33:20.289Z,24.89
2023-04-01T07:34:20.241Z,24.92
2023-04-01T07:35:20.228Z,24.90
2023-04-01T07:36:20.254Z,24.92
2023-04-01T07:37:20.211Z,24.90
2023-04-01T07:38:20.215Z,24.90
2023-04-01T07:39:20.197Z,24.92
2023-04-01T07:40:20.214Z,24.92
2023-04-01T07:41:20.186Z,24.90
2023-04-01T07:42:20.173Z,24.95
2023-04-01T07:43:20.166Z,24.95
2023-04-01T07:44:20.160Z,24.99
2023-04-01T07:45:20.180Z,24.96
2023-04-01T07:46:20.176Z,24.96
2023-04-01T07:47:20.152Z,24.96
2023-04-01T07:48:20.146Z,24.95
2023-04-01T07:49:20.133Z,24.95
2023-04-01T07:50:20.135Z,24.95
2023-04-01T07:51:20.122Z,24.95
2023-04-01T07:52:20.111Z,24.96
2023-04-01T07:53:20.097Z,24.96
2023-04-01T07:54:20.097Z,24.96
2023-04-01T07:55:20.103Z,24.96
2023-04-01T07:56:20.120Z,24.95
2023-04-01T07:57:20.130Z,24.96
2023-04-01T07:58:20.084Z,24.93
2023-04-01T07:59:20.090Z,24.95
2023-04-01T08:00:20.098Z,24.96
2023-04-01T08:01:20.087Z,24.95
2023-04-01T08:02:20.149Z,24.96
2023-04-01T08:03:20.198Z,24.96
2023-04-01T08:04:20.147Z,24.95
2023-04-01T08:05:20.072Z,24.95
2023-04-01T08:06:20.058Z,24.96
2023-04-01T08:07:20.068Z,24.95
2023-04-01T08:08:20.087Z,24.97
2023-04-01T08:09:20.076Z,24.96
2023-04-01T08:10:20.117Z,24.96
2023-04-01T08:11:20.152Z,24.99
2023-04-01T08:12:20.227Z,24.99
2023-04-01T08:13:20.336Z,24.99
2023-04-01T08:14:20.286Z,25.02
2023-04-01T08:15:20.317Z,24.99
2023-04-01T08:16:20.370Z,25.00
2023-04-01T08:17:20.375Z,24.97
2023-04-01T08:18:20.411Z,24.99
2023-04-01T08:19:20.415Z,24.99
2023-04-01T08:20:20.455Z,25.00
2023-04-01T08:21:20.497Z,25.00
2023-04-01T08:22:20.555Z,25.02
2023-04-01T08:23:20.586Z,25.03
2023-04-01T08:24:22.608Z,25.03
2023-04-01T08:25:20.589Z,25.02
2023-04-01T08:26:20.582Z,25.03
2023-04-01T08:27:20.576Z,25.05
2023-04-01T08:28:20.590Z,25.05
2023-04-01T08:29:20.561Z,25.03
2023-04-01T08:30:20.550Z,25.06
2023-04-01T08:31:20.589Z,25.06
2023-04-01T08:32:20.532Z,25.06
2023-04-01T08:33:20.526Z,25.07
2023-04-01T08:34:20.526Z,25.09
2023-04-01T08:35:20.520Z,25.12
2023-04-01T08:36:21.125Z,25.10
2023-04-01T08:37:20.502Z,25.12
2023-04-01T08:38:20.488Z,25.13
2023-04-01T08:39:20.483Z,25.12
2023-04-01T08:40:20.470Z,25.16
2023-04-01T08:41:20.478Z,25.16
2023-04-01T08:42:20.455Z,25.19
2023-04-01T08:43:20.441Z,25.19
2023-04-01T08:44:20.471Z,25.17
2023-04-01T08:45:20.451Z,25.22
2023-04-01T08:46:20.471Z,25.23
2023-04-01T08:47:20.411Z,25.26
2023-04-01T08:48:20.411Z,25.29
2023-04-01T08:49:20.432Z,25.27
2023-04-01T08:50:20.394Z,25.30
2023-04-01T08:51:20.447Z,25.33
2023-04-01T08:52:20.491Z,25.34
2023-04-01T08:53:20.536Z,25.36
2023-04-01T08:54:20.567Z,25.40
2023-04-01T08:55:20.604Z,25.43
2023-04-01T08:56:20.627Z,25.44
2023-04-01T08:57:20.698Z,25.47
2023-04-01T08:58:20.694Z,25.48
2023-04-01T08:59:20.740Z,25.45
2023-04-01T09:00:20.822Z,25.51
2023-04-01T09:01:20.772Z,25.51
2023-04-01T09:02:20.842Z,25.55
2023-04-01T09:03:20.901Z,25.55
2023-04-01T09:04:20.922Z,25.58
2023-04-01T09:05:20.879Z,25.61
2023-04-01T09:06:20.892Z,25.61
2023-04-01T09:07:21.127Z,25.62
2023-04-01T09:08:20.934Z,25.65
2023-04-01T09:09:20.976Z,25.67
2023-04-01T09:10:21.023Z,25.68
2023-04-01T09:11:20.973Z,25.67
2023-04-01T09:12:20.996Z,25.69
2023-04-01T09:13:21.022Z,25.69
2023-04-01T09:14:21.018Z,25.71
2023-04-01T09:15:21.022Z,25.74
2023-04-01T09:16:21.133Z,25.75
2023-04-01T09:17:21.084Z,25.75
2023-04-01T09:18:21.038Z,25.78
2023-04-01T09:19:21.063Z,25.75
2023-04-01T09:20:21.161Z,25.78
2023-04-01T09:21:21.046Z,25.77
2023-04-01T09:22:21.057Z,25.78
2023-04-01T09:23:21.047Z,25.77
2023-04-01T09:24:21.045Z,25.78
2023-04-01T09:25:21.040Z,25.79
2023-04-01T09:26:21.049Z,25.79
2023-04-01T09:27:21.037Z,25.79
2023-04-01T09:28:21.056Z,25.77
2023-04-01T09:29:21.034Z,25.75
2023-04-01T09:30:21.036Z,25.81
2023-04-01T09:31:21.131Z,25.81
2023-04-01T09:32:21.039Z,25.82
2023-04-01T09:33:21.033Z,25.84
2023-04-01T09:34:21.016Z,25.82
2023-04-01T09:35:21.007Z,25.85
2023-04-01T09:36:21.093Z,25.85
2023-04-01T09:37:21.033Z,25.85
2023-04-01T09:38:21.031Z,25.86
2023-04-01T09:39:20.963Z,25.85
2023-04-01T09:40:21.061Z,25.85
2023-04-01T09:41:20.953Z,25.84
2023-04-01T09:42:20.935Z,25.85
2023-04-01T09:43:20.923Z,25.86
2023-04-01T09:44:20.909Z,25.88
2023-04-01T09:45:20.897Z,25.86
2023-04-01T09:46:20.934Z,25.88
2023-04-01T09:47:20.937Z,25.89
2023-04-01T09:48:20.991Z,25.89
2023-04-01T09:49:20.987Z,25.88
2023-04-01T09:50:20.993Z,25.91
2023-04-01T09:51:20.979Z,25.91
2023-04-01T09:52:21.007Z,25.91
2023-04-01T09:53:20.996Z,25.92
2023-04-01T09:54:21.022Z,25.95
2023-04-01T09:55:21.031Z,25.92
2023-04-01T09:56:21.029Z,25.92
2023-04-01T09:57:21.105Z,25.92
2023-04-01T09:58:21.040Z,25.92
2023-04-01T09:59:21.048Z,25.95
2023-04-01T10:00:21.063Z,25.93
2023-04-01T10:01:21.079Z,25.93
2023-04-01T10:02:21.070Z,25.93
2023-04-01T10:03:21.063Z,25.92
2023-04-01T10:04:21.100Z,25.91
2023-04-01T10:05:21.132Z,25.92
2023-04-01T10:06:21.091Z,25.92
2023-04-01T10:07:21.107Z,25.91
2023-04-01T10:08:21.115Z,25.91
2023-04-01T10:09:21.133Z,25.89
2023-04-01T10:10:21.146Z,25.88
2023-04-01T10:11:21.153Z,25.89
2023-04-01T10:12:21.172Z,25.91
2023-04-01T10:13:21.184Z,25.89
2023-04-01T10:14:21.199Z,25.88
2023-04-01T10:15:21.220Z,25.85
2023-04-01T10:16:21.299Z,25.84
2023-04-01T10:17:21.481Z,25.84
2023-04-01T10:18:21.282Z,25.85
2023-04-01T10:19:21.296Z,25.85
2023-04-01T10:20:21.356Z,25.86
2023-04-01T10:21:21.347Z,25.85
2023-04-01T10:22:21.367Z,25.85
2023-04-01T10:24:33.016Z,25.78
2023-04-01T10:25:34.248Z,25.82
2023-04-01T10:26:33.979Z,25.78
2023-04-01T10:27:33.940Z,25.79
2023-04-01T10:28:33.934Z,25.79
2023-04-01T10:29:33.909Z,25.81
2023-04-01T10:30:33.896Z,25.78
2023-04-01T10:31:33.918Z,25.78
2023-04-01T10:32:33.922Z,25.79
2023-04-01T10:33:33.852Z,25.79
2023-04-01T10:34:33.839Z,25.78
2023-04-01T10:35:34.134Z,25.75
2023-04-01T10:36:33.805Z,25.77
2023-04-01T10:37:33.812Z,25.78
2023-04-01T10:38:33.792Z,25.75
2023-04-01T10:39:33.794Z,25.75
2023-04-01T10:40:33.777Z,25.75
2023-04-01T10:41:33.764Z,25.74
2023-04-01T10:42:33.758Z,25.71
2023-04-01T10:43:33.745Z,25.72
2023-04-01T10:44:33.756Z,25.71
2023-04-01T10:45:33.900Z,25.72
2023-04-01T10:46:33.782Z,25.69
2023-04-01T10:47:33.727Z,25.69
2023-04-01T10:48:33.674Z,25.69
2023-04-01T10:49:33.719Z,25.68
2023-04-01T10:50:33.733Z,25.68
2023-04-01T10:51:33.807Z,25.65
2023-04-01T10:52:33.816Z,25.67
2023-04-01T10:53:33.874Z,25.65
2023-04-01T10:54:33.903Z,25.65
2023-04-01T10:55:34.276Z,25.62
2023-04-01T10:56:34.008Z,25.62
2023-04-01T10:57:34.144Z,25.58
2023-04-01T10:58:34.010Z,25.61
2023-04-01T10:59:34.003Z,25.62
2023-04-01T11:00:34.002Z,25.62
2023-04-01T11:01:33.977Z,25.62
2023-04-01T11:02:33.989Z,25.61
2023-04-01T11:03:34.005Z,25.62
2023-04-01T11:04:33.904Z,25.60
2023-04-01T11:05:34.197Z,25.60
2023-04-01T11:06:33.863Z,25.60
2023-04-01T11:07:33.864Z,25.58
2023-04-01T11:08:33.839Z,25.57
2023-04-01T11:09:33.806Z,25.57
2023-04-01T11:10:33.802Z,25.57
2023-04-01T11:11:33.839Z,25.57
2023-04-01T11:12:33.797Z,25.58
2023-04-01T11:13:33.753Z,25.54
2023-04-01T11:14:33.741Z,25.55
2023-04-01T11:15:34.098Z,25.54
2023-04-01T11:16:34.325Z,25.54
2023-04-01T11:17:33.869Z,25.54
2023-04-01T11:18:33.671Z,25.50
2023-04-01T11:19:33.662Z,25.51
2023-04-01T11:20:33.706Z,25.52
2023-04-01T11:21:33.634Z,25.52
2023-04-01T11:22:33.654Z,25.52
2023-04-01T11:23:33.740Z,25.51
2023-04-01T11:24:33.714Z,25.51
2023-04-01T11:25:34.051Z,25.48
2023-04-01T11:26:33.806Z,25.48
2023-04-01T11:27:33.771Z,25.48
2023-04-01T11:28:33.819Z,25.48
2023-04-01T11:29:33.816Z,25.47
2023-04-01T11:30:33.843Z,25.48
2023-04-01T11:31:33.960Z,25.45
2023-04-01T11:32:33.966Z,25.45
2023-04-01T11:33:33.910Z,25.45
2023-04-01T11:34:33.937Z,25.44
2023-04-01T11:35:34.214Z,25.44
2023-04-01T11:36:34.050Z,25.44
2023-04-01T11:37:34.027Z,25.43
2023-04-01T11:38:34.052Z,25.41
2023-04-01T11:39:34.107Z,25.43
2023-04-01T11:40:34.168Z,25.43
2023-04-01T11:41:34.155Z,25.41
2023-04-01T11:42:34.185Z,25.38
2023-04-01T11:43:34.352Z,25.40
2023-04-01T11:44:34.263Z,25.40
2023-04-01T11:45:34.561Z,25.41
2023-04-01T11:46:34.360Z,25.40
2023-04-01T11:47:34.401Z,25.37
2023-04-01T11:48:34.378Z,25.38
2023-04-01T11:49:34.422Z,25.38
2023-04-01T11:50:34.455Z,25.37
2023-04-01T11:51:34.504Z,25.36
2023-04-01T11:52:34.535Z,25.38
2023-04-01T11:53:34.556Z,25.38
2023-04-01T11:54:34.646Z,25.36
2023-04-01T11:55:34.911Z,25.36
2023-04-01T11:56:34.697Z,25.37
2023-04-01T11:57:34.849Z,25.36
2023-04-01T11:58:34.768Z,25.36
2023-04-01T11:59:34.806Z,25.36
2023-04-01T12:00:34.846Z,25.33
2023-04-01T12:01:34.894Z,25.34
2023-04-01T12:02:35.047Z,25.34
2023-04-01T12:03:35.071Z,25.34
2023-04-01T12:04:35.029Z,25.34
2023-04-01T12:05:35.509Z,25.34
2023-04-01T12:06:35.098Z,25.30
2023-04-01T12:07:35.144Z,25.32
2023-04-01T12:08:35.207Z,25.32
2023-04-01T12:09:35.238Z,25.32
2023-04-01T12:10:35.741Z,25.30
2023-04-01T12:11:35.357Z,25.33
2023-04-01T12:12:35.379Z,25.29
2023-04-01T12:13:35.416Z,25.29
2023-04-01T12:14:35.473Z,25.27
2023-04-01T12:15:35.743Z,25.27
2023-04-01T12:16:35.569Z,25.29
2023-04-01T12:17:35.622Z,25.29
2023-04-01T12:18:35.624Z,25.30
2023-04-01T12:19:35.670Z,25.29
2023-04-01T12:20:35.748Z,25.29
2023-04-01T12:21:35.748Z,25.26
2023-04-01T12:22:35.795Z,25.26
2023-04-01T12:23:35.847Z,25.29
2023-04-01T12:24:35.865Z,25.27
2023-04-01T12:25:36.078Z,25.27
2023-04-01T12:26:36.024Z,25.26
2023-04-01T12:27:36.026Z,25.27
2023-04-01T12:28:36.043Z,25.27
2023-04-01T12:29:36.089Z,25.26
2023-04-01T12:30:36.150Z,25.26
2023-04-01T12:31:36.216Z,25.23
2023-04-01T12:32:36.279Z,25.26
2023-04-01T12:33:38.388Z,25.23
2023-04-01T12:34:36.305Z,25.22
2023-04-01T12:35:36.533Z,25.24
2023-04-01T12:36:36.294Z,25.22
2023-04-01T12:37:36.280Z,25.23
2023-04-01T12:38:36.270Z,25.20
2023-04-01T12:39:36.271Z,25.22
2023-04-01T12:40:36.257Z,25.20
2023-04-01T12:41:36.261Z,25.19
2023-04-01T12:42:36.259Z,25.20
2023-04-01T12:43:36.287Z,25.20
2023-04-01T12:44:36.259Z,25.20
2023-04-01T12:45:36.552Z,25.19
2023-04-01T12:46:36.287Z,25.19
2023-04-01T12:47:36.266Z,25.19
2023-04-01T12:48:36.232Z,25.19
2023-04-01T12:49:36.213Z,25.17
2023-04-01T12:50:36.276Z,25.16
2023-04-01T12:51:36.346Z,25.17
2023-04-01T12:52:36.378Z,25.16
2023-04-01T12:53:37.253Z,25.16
2023-04-01T12:54:36.489Z,25.19